createdAt,value
2022-08-16T00:01:21.931Z,99445.28
2022-08-16T00:03:52.504Z,99436.03
2022-08-16T00:06:19.225Z,99449.12
2022-08-16T00:08:46.397Z,99452.16
2022-08-16T00:11:15.290Z,99440.47
2022-08-16T00:13:43.535Z,99443.34
2022-08-16T00:17:05.459Z,99439.78
2022-08-16T00:19:08.390Z,99439.56
2022-08-16T00:21:35.547Z,99440.22
2022-08-16T00:24:05.063Z,99452.03
2022-08-16T00:26:44.099Z,99456.41
2022-08-16T00:29:13.346Z,99450.81
2022-08-16T00:31:58.621Z,99451.69
2022-08-16T00:34:44.088Z,99448.78
2022-08-16T00:37:17.334Z,99451.16
2022-08-16T00:39:47.186Z,99447.41
2022-08-16T00:42:29.608Z,99449.75
2022-08-16T00:45:06.279Z,99451.72
2022-08-16T00:47:36.055Z,99459.97
2022-08-16T00:50:08.753Z,99471.94
2022-08-16T00:52:50.458Z,99467.03
2022-08-16T00:55:22.327Z,99469.69
2022-08-16T00:57:58.761Z,99479.97
2022-08-16T01:00:28.940Z,99474.75
2022-08-16T01:02:57.381Z,99475.94
2022-08-16T01:05:25.690Z,99470.22
2022-08-16T01:07:54.581Z,99473.13
2022-08-16T01:10:32.653Z,99470.75
2022-08-16T01:13:15.232Z,99462.34
2022-08-16T01:15:57.684Z,99462.34
2022-08-16T01:18:40.190Z,99459.34
2022-08-16T01:21:33.270Z,99472.28
2022-08-16T01:24:03.458Z,99479.72
2022-08-16T01:26:34.383Z,99465.13
2022-08-16T01:29:10.126Z,99460.69
2022-08-16T01:31:42.637Z,99463.94
2022-08-16T01:34:23.256Z,99460.13
2022-08-16T01:37:19.743Z,99455.66
2022-08-16T01:39:48.240Z,99450.75
2022-08-16T01:42:16.171Z,99451.53
2022-08-16T01:44:46.889Z,99449.50
2022-08-16T01:47:18.998Z,99451.38
2022-08-16T01:50:41.760Z,99450.38
2022-08-16T01:52:33.326Z,99454.03
2022-08-16T01:55:00.024Z,99461.03
2022-08-16T01:57:28.002Z,99466.75
2022-08-16T01:59:59.048Z,99464.03
2022-08-16T02:02:27.031Z,99462.25
2022-08-16T02:04:55.218Z,99471.12
2022-08-16T02:07:23.503Z,99473.44
2022-08-16T02:09:57.287Z,99479.28
2022-08-16T02:12:45.827Z,99476.97
2022-08-16T02:15:16.611Z,99478.69
2022-08-16T02:17:43.425Z,99476.50
2022-08-16T02:20:12.439Z,99483.88
2022-08-16T02:22:39.523Z,99485.50
2022-08-16T02:25:10.898Z,99479.09
2022-08-16T02:27:41.061Z,99479.09
2022-08-16T02:30:35.964Z,99483.44
2022-08-16T02:33:03.163Z,99483.88
2022-08-16T02:35:31.089Z,99485.50
2022-08-16T02:38:08.633Z,99496.00
2022-08-16T02:40:36.668Z,99497.44
2022-08-16T02:43:04.578Z,99501.16
2022-08-16T02:45:32.035Z,99507.31
2022-08-16T02:48:01.029Z,99506.59
2022-08-16T02:50:53.976Z,99493.78
2022-08-16T02:53:33.602Z,99499.81
2022-08-16T02:56:00.644Z,99507.94
2022-08-16T02:58:28.008Z,99511.38
2022-08-16T03:00:57.627Z,99512.22
2022-08-16T03:03:26.162Z,99509.38
2022-08-16T03:05:53.581Z,99520.44
2022-08-16T03:08:50.213Z,99534.56
2022-08-16T03:11:16.870Z,99524.94
2022-08-16T03:13:56.757Z,99526.00
2022-08-16T03:16:36.541Z,99524.75
2022-08-16T03:19:08.533Z,99534.97
2022-08-16T03:21:38.143Z,99527.53
2022-08-16T03:24:28.282Z,99547.72
2022-08-16T03:26:58.084Z,99557.84
2022-08-16T03:29:31.507Z,99559.75
2022-08-16T03:32:01.442Z,99551.37
2022-08-16T03:34:29.801Z,99553.75
2022-08-16T03:36:57.092Z,99554.91
2022-08-16T03:39:23.868Z,99544.44
2022-08-16T03:41:59.228Z,99547.66
2022-08-16T03:44:44.293Z,99545.03
2022-08-16T03:47:19.103Z,99555.41
2022-08-16T03:49:51.505Z,99561.34
2022-08-16T03:52:20.622Z,99563.75
2022-08-16T03:54:53.567Z,99559.28
2022-08-16T03:57:31.436Z,99558.59
2022-08-16T04:00:35.042Z,99554.97
2022-08-16T04:03:07.711Z,99557.34
2022-08-16T04:05:38.455Z,99561.69
2022-08-16T04:08:23.758Z,99559.66
2022-08-16T04:10:53.543Z,99561.69
2022-08-16T04:14:00.063Z,99569.91
2022-08-16T04:16:09.633Z,99574.25
2022-08-16T04:19:02.151Z,99579.34
2022-08-16T04:21:31.919Z,99577.09
2022-08-16T04:23:59.454Z,99574.81
2022-08-16T04:26:26.249Z,99568.63
2022-08-16T04:29:14.733Z,99569.75
2022-08-16T04:31:45.125Z,99556.56
2022-08-16T04:34:12.460Z,99557.44
2022-08-16T04:36:39.761Z,99557.59
2022-08-16T04:39:06.582Z,99561.25
2022-08-16T04:41:37.353Z,99558.66
2022-08-16T04:44:32.771Z,99560.09
2022-08-16T04:47:01.473Z,99558.41
2022-08-16T04:49:38.692Z,99557.94
2022-08-16T04:52:34.549Z,99548.75
2022-08-16T04:54:59.419Z,99553.50
2022-08-16T04:57:30.080Z,99558.75
2022-08-16T04:59:57.411Z,99560.84
2022-08-16T05:02:42.107Z,99570.28
2022-08-16T05:05:17.179Z,99566.37
2022-08-16T05:07:59.544Z,99556.00
2022-08-16T05:10:29.513Z,99558.34
2022-08-16T05:12:58.566Z,99568.22
2022-08-16T05:15:26.552Z,99570.19
2022-08-16T05:17:59.147Z,99561.84
2022-08-16T05:20:35.559Z,99570.44
2022-08-16T05:23:14.997Z,99576.53
2022-08-16T05:25:48.490Z,99581.84
2022-08-16T05:28:17.517Z,99590.09
2022-08-16T05:30:45.297Z,99583.31
2022-08-16T05:33:18.284Z,99585.81
2022-08-16T05:35:55.682Z,99593.19
2022-08-16T05:38:33.334Z,99583.09
2022-08-16T05:41:07.012Z,99584.78
2022-08-16T05:43:43.341Z,99586.28
2022-08-16T05:46:30.211Z,99589.47
2022-08-16T05:49:06.084Z,99585.09
2022-08-16T05:51:41.461Z,99586.66
2022-08-16T05:54:09.743Z,99594.44
2022-08-16T05:56:39.429Z,99600.97
2022-08-16T05:59:07.616Z,99597.34
2022-08-16T06:01:38.330Z,99608.72
2022-08-16T06:04:13.324Z,99601.50
2022-08-16T06:06:57.415Z,99607.81
2022-08-16T06:09:42.851Z,99610.81
2022-08-16T06:12:27.429Z,99610.25
2022-08-16T06:14:59.297Z,99616.62
2022-08-16T06:17:43.164Z,99610.72
2022-08-16T06:20:35.975Z,99607.84
2022-08-16T06:23:17.111Z,99607.41
2022-08-16T06:25:53.322Z,99606.31
2022-08-16T06:28:34.997Z,99598.41
2022-08-16T06:31:04.847Z,99611.31
2022-08-16T06:33:41.800Z,99613.56
2022-08-16T06:36:10.564Z,99617.25
2022-08-16T06:38:38.798Z,99624.41
2022-08-16T06:41:22.267Z,99615.09
2022-08-16T06:43:51.365Z,99624.41
2022-08-16T06:46:31.898Z,99621.53
2022-08-16T06:48:59.596Z,99625.53
2022-08-16T06:51:45.157Z,99625.59
2022-08-16T06:54:14.193Z,99628.88
2022-08-16T06:56:42.713Z,99629.88
2022-08-16T06:59:10.853Z,99631.00
2022-08-16T07:01:44.921Z,99629.53
2022-08-16T07:04:32.772Z,99635.50
2022-08-16T07:07:06.087Z,99629.25
2022-08-16T07:09:36.322Z,99630.16
2022-08-16T07:12:05.739Z,99622.28
2022-08-16T07:14:33.908Z,99632.84
2022-08-16T07:17:02.203Z,99637.47
2022-08-16T07:20:03.649Z,99654.56
2022-08-16T07:22:38.359Z,99643.31
2022-08-16T07:25:13.000Z,99637.63
2022-08-16T07:27:40.926Z,99626.81
2022-08-16T07:30:39.174Z,99623.59
2022-08-16T07:32:58.390Z,99610.78
2022-08-16T07:35:25.679Z,99623.81
2022-08-16T07:37:52.919Z,99614.59
2022-08-16T07:40:24.895Z,99622.94
2022-08-16T07:43:05.152Z,99618.22
2022-08-16T07:45:33.794Z,99620.78
2022-08-16T07:48:00.589Z,99619.63
2022-08-16T07:50:56.393Z,99619.84
2022-08-16T07:53:30.295Z,99621.59
2022-08-16T07:55:59.405Z,99621.22
2022-08-16T07:58:34.649Z,99619.37
2022-08-16T08:01:11.024Z,99626.22
2022-08-16T08:03:49.110Z,99624.19
2022-08-16T08:06:24.903Z,99622.19
2022-08-16T08:08:57.148Z,99622.16
2022-08-16T08:11:25.097Z,99620.84
2022-08-16T08:14:03.108Z,99621.63
2022-08-16T08:16:32.807Z,99631.06
2022-08-16T08:19:02.247Z,99615.47
2022-08-16T08:21:59.746Z,99627.47
2022-08-16T08:24:20.071Z,99628.00
2022-08-16T08:26:49.778Z,99627.81
2022-08-16T08:29:22.635Z,99624.59
2022-08-16T08:31:53.036Z,99622.03
2022-08-16T08:34:22.303Z,99624.16
2022-08-16T08:36:54.370Z,99624.41
2022-08-16T08:39:22.242Z,99626.94
2022-08-16T08:41:51.242Z,99632.63
2022-08-16T08:44:28.835Z,99625.56
2022-08-16T08:47:00.592Z,99630.78
2022-08-16T08:49:46.814Z,99630.91
2022-08-16T08:52:34.683Z,99631.09
2022-08-16T08:55:09.084Z,99623.09
2022-08-16T08:57:39.545Z,99635.97
2022-08-16T09:00:13.518Z,99624.91
2022-08-16T09:02:43.133Z,99625.69
2022-08-16T09:05:15.576Z,99624.88
2022-08-16T09:08:01.164Z,99619.06
2022-08-16T09:10:30.687Z,99617.69
2022-08-16T09:12:59.185Z,99614.69
2022-08-16T09:15:32.642Z,99614.50
2022-08-16T09:18:02.137Z,99611.38
2022-08-16T09:20:58.356Z,99598.84
2022-08-16T09:23:36.726Z,99611.59
2022-08-16T09:26:45.290Z,99607.97
2022-08-16T09:29:15.313Z,99594.19
2022-08-16T09:31:41.263Z,99601.06
2022-08-16T09:34:10.575Z,99601.78
2022-08-16T09:36:46.208Z,99600.47
2022-08-16T09:39:16.314Z,99606.63
2022-08-16T09:41:53.687Z,99599.56
2022-08-16T09:45:11.323Z,99605.47
2022-08-16T09:47:11.439Z,99595.97
2022-08-16T09:49:40.799Z,99597.25
2022-08-16T09:52:09.822Z,99597.37
2022-08-16T09:54:38.108Z,99594.69
2022-08-16T09:57:05.408Z,99596.53
2022-08-16T09:59:38.695Z,99604.00
2022-08-16T10:02:23.029Z,99601.75
2022-08-16T10:04:54.443Z,99593.72
2022-08-16T10:07:22.498Z,99590.72
2022-08-16T10:09:55.018Z,99598.16
2022-08-16T10:12:47.047Z,99598.16
2022-08-16T10:15:22.892Z,99589.28
2022-08-16T10:18:00.716Z,99590.28
2022-08-16T10:20:31.515Z,99592.72
2022-08-16T10:23:03.618Z,99591.31
2022-08-16T10:27:20.844Z,99595.16
2022-08-16T10:28:28.833Z,99586.88
2022-08-16T10:30:58.826Z,99581.87
2022-08-16T10:33:29.787Z,99583.06
2022-08-16T10:36:03.947Z,99583.00
2022-08-16T10:38:36.533Z,99583.91
2022-08-16T10:41:05.259Z,99591.56
2022-08-16T10:43:35.447Z,99589.31
2022-08-16T10:46:04.058Z,99596.25
2022-08-16T10:48:50.771Z,99599.84
2022-08-16T10:51:18.879Z,99596.91
2022-08-16T10:53:46.413Z,99596.50
2022-08-16T10:56:44.242Z,99596.13
2022-08-16T11:12:56.718Z,99584.66
2022-08-16T11:15:24.509Z,99593.50
2022-08-16T11:20:49.282Z,99589.28
2022-08-16T11:23:17.688Z,99592.94
2022-08-16T11:26:07.381Z,99592.84
2022-08-16T11:31:22.132Z,99590.75
2022-08-16T11:33:52.780Z,99598.94
2022-08-16T11:36:24.847Z,99593.28
2022-08-16T11:38:57.709Z,99596.03
2022-08-16T11:41:29.457Z,99583.91
2022-08-16T11:43:58.307Z,99588.56
2022-08-16T11:46:43.501Z,99581.16
2022-08-16T11:49:13.935Z,99590.44
2022-08-16T11:51:44.412Z,99594.78
2022-08-16T11:54:20.452Z,99588.28
2022-08-16T11:56:57.085Z,99596.31
2022-08-16T11:59:28.632Z,99592.56
2022-08-16T12:02:04.163Z,99585.22
2022-08-16T12:04:46.053Z,99588.03
2022-08-16T12:07:18.834Z,99589.97
2022-08-16T12:09:45.992Z,99581.25
2022-08-16T12:12:15.652Z,99579.16
2022-08-16T12:14:45.787Z,99580.28
2022-08-16T12:17:13.695Z,99576.72
2022-08-16T12:19:42.635Z,99580.28
2022-08-16T12:22:19.381Z,99572.88
2022-08-16T12:24:52.059Z,99572.88
2022-08-16T12:27:24.273Z,99565.19
2022-08-16T12:29:54.714Z,99568.66
2022-08-16T12:32:35.977Z,99568.00
2022-08-16T12:35:08.693Z,99563.97
2022-08-16T12:37:35.811Z,99561.69
2022-08-16T12:40:02.866Z,99550.84
2022-08-16T12:42:35.357Z,99551.78
2022-08-16T12:45:05.271Z,99544.31
2022-08-16T12:47:50.547Z,99527.97
2022-08-16T12:50:18.653Z,99534.94
2022-08-16T12:52:53.049Z,99534.81
2022-08-16T12:55:20.871Z,99532.94
2022-08-16T12:57:58.721Z,99522.13
2022-08-16T13:00:33.666Z,99533.44
2022-08-16T13:03:03.294Z,99539.88
2022-08-16T13:08:03.696Z,99542.34
2022-08-16T13:10:38.134Z,99541.75
2022-08-16T13:13:09.284Z,99546.81
2022-08-16T13:15:51.809Z,99538.28
2022-08-16T13:18:32.660Z,99540.53
2022-08-16T13:21:05.815Z,99529.41
2022-08-16T13:23:34.175Z,99530.63
2022-08-16T13:26:04.238Z,99535.41
2022-08-16T13:28:31.211Z,99530.41
2022-08-16T13:30:59.201Z,99524.19
2022-08-16T13:33:30.687Z,99530.09
2022-08-16T13:36:01.256Z,99525.12
2022-08-16T13:38:31.333Z,99527.34
2022-08-16T13:41:09.474Z,99516.84
2022-08-16T13:43:38.264Z,99517.19
2022-08-16T13:46:06.823Z,99516.25
2022-08-16T13:48:42.826Z,99508.03
2022-08-16T13:51:17.788Z,99510.00
2022-08-16T13:53:59.616Z,99510.31
2022-08-16T13:56:36.008Z,99500.00
2022-08-16T13:59:06.256Z,99503.94
2022-08-16T14:01:42.510Z,99502.88
2022-08-16T14:04:19.030Z,99509.75
2022-08-16T14:06:53.117Z,99499.97
2022-08-16T14:09:20.431Z,99506.06
2022-08-16T14:11:47.323Z,99499.75
2022-08-16T14:14:17.035Z,99492.63
2022-08-16T14:16:45.349Z,99498.09
2022-08-16T14:19:18.285Z,99499.53
2022-08-16T14:21:56.630Z,99493.44
2022-08-16T14:24:30.101Z,99497.72
2022-08-16T14:26:57.954Z,99495.03
2022-08-16T14:29:28.519Z,99497.87
2022-08-16T14:31:59.559Z,99499.81
2022-08-16T14:34:26.895Z,99499.91
2022-08-16T14:36:56.872Z,99500.81
2022-08-16T14:39:23.918Z,99501.22
2022-08-16T14:41:53.804Z,99503.94
2022-08-16T14:44:23.491Z,99502.88
2022-08-16T14:46:50.244Z,99523.78
2022-08-16T14:49:19.688Z,99522.94
2022-08-16T14:51:48.919Z,99522.03
2022-08-16T14:54:15.921Z,99528.06
2022-08-16T14:56:46.881Z,99542.69
2022-08-16T14:59:23.198Z,99554.72
2022-08-16T15:01:59.790Z,99581.97
2022-08-16T15:04:39.724Z,99579.69
2022-08-16T15:07:10.884Z,99603.19
2022-08-16T15:09:44.667Z,99611.72
2022-08-16T15:12:31.242Z,99601.28
2022-08-16T15:15:00.901Z,99585.72
2022-08-16T15:17:33.963Z,99584.66
2022-08-16T15:20:09.134Z,99581.28
2022-08-16T15:22:42.607Z,99571.34
2022-08-16T15:25:19.059Z,99573.94
2022-08-16T15:27:55.431Z,99566.19
2022-08-16T15:30:59.166Z,99584.66
2022-08-16T15:33:16.581Z,99579.63
2022-08-16T15:35:44.372Z,99575.50
2022-08-16T15:38:58.011Z,99574.69
2022-08-16T15:40:59.407Z,99567.97
2022-08-16T15:43:33.986Z,99577.28
2022-08-16T15:46:35.113Z,99576.47
2022-08-16T15:49:11.965Z,99567.31
2022-08-16T15:51:39.404Z,99578.25
2022-08-16T15:54:21.007Z,99580.59
2022-08-16T15:56:56.133Z,99590.09
2022-08-16T15:59:27.466Z,99596.06
2022-08-16T16:02:02.005Z,99596.37
2022-08-16T16:04:28.764Z,99594.28
2022-08-16T16:06:56.821Z,99592.78
2022-08-16T16:09:36.947Z,99592.19
2022-08-16T16:12:41.479Z,99588.41
2022-08-16T16:14:53.729Z,99597.34
2022-08-16T16:17:20.541Z,99591.13
2022-08-16T16:19:49.755Z,99584.44
2022-08-16T16:22:21.818Z,99592.81
2022-08-16T16:24:52.396Z,99595.63
2022-08-16T16:27:19.190Z,99592.88
2022-08-16T16:29:57.783Z,99605.03
2022-08-16T16:32:34.206Z,99608.62
2022-08-16T16:35:02.961Z,99617.28
2022-08-16T16:37:31.309Z,99612.25
2022-08-16T16:39:59.697Z,99617.50
2022-08-16T16:42:30.002Z,99611.72
2022-08-16T16:45:01.508Z,99612.91
2022-08-16T16:47:48.314Z,99611.06
2022-08-16T16:50:17.060Z,99609.41
2022-08-16T16:52:45.551Z,99616.09
2022-08-16T16:55:14.894Z,99621.63
2022-08-16T16:58:03.389Z,99610.16
2022-08-16T17:00:38.293Z,99611.44
2022-08-16T17:03:06.266Z,99618.16
2022-08-16T17:05:56.883Z,99617.44
2022-08-16T17:08:30.068Z,99615.66
2022-08-16T17:10:57.814Z,99629.66
2022-08-16T17:13:25.195Z,99626.63
2022-08-16T17:15:53.933Z,99632.94
2022-08-16T17:19:15.002Z,99630.09
2022-08-16T17:21:10.099Z,99628.22
2022-08-16T17:23:58.897Z,99643.69
2022-08-16T17:26:29.819Z,99642.41
2022-08-16T17:29:02.721Z,99635.13
2022-08-16T17:31:41.073Z,99642.63
2022-08-16T17:34:29.203Z,99640.66
2022-08-16T17:36:59.584Z,99634.56
2022-08-16T17:39:29.667Z,99633.88
2022-08-16T17:41:58.141Z,99636.75
2022-08-16T17:44:25.617Z,99633.16
2022-08-16T17:46:53.206Z,99638.88
2022-08-16T17:49:21.152Z,99636.03
2022-08-16T17:51:48.718Z,99647.66
2022-08-16T17:54:16.952Z,99654.94
2022-08-16T17:57:00.479Z,99652.56
2022-08-16T17:59:29.109Z,99657.31
2022-08-16T18:01:56.472Z,99651.63
2022-08-16T18:04:48.416Z,99668.91
2022-08-16T18:07:11.372Z,99668.97
2022-08-16T18:09:40.790Z,99658.81
2022-08-16T18:12:44.980Z,99666.63
2022-08-16T18:15:06.674Z,99665.87
2022-08-16T18:17:33.617Z,99672.16
2022-08-16T18:20:00.921Z,99668.56
2022-08-16T18:22:30.933Z,99676.06
2022-08-16T18:24:58.327Z,99677.25
2022-08-16T18:27:27.241Z,99691.81
2022-08-16T18:29:54.875Z,99692.25
2022-08-16T18:32:24.583Z,99696.31
2022-08-16T18:34:54.908Z,99702.75
2022-08-16T18:37:23.909Z,99700.94
2022-08-16T18:39:51.408Z,99710.34
2022-08-16T18:42:19.091Z,99711.22
2022-08-16T18:44:46.661Z,99711.63
2022-08-16T18:47:14.060Z,99717.94
2022-08-16T18:49:41.817Z,99716.34
2022-08-16T18:52:14.356Z,99716.50
2022-08-16T18:55:02.032Z,99712.53
2022-08-16T18:57:37.324Z,99719.78
2022-08-16T19:00:07.303Z,99725.88
2022-08-16T19:02:56.976Z,99723.75
2022-08-16T19:05:26.308Z,99727.66
2022-08-16T19:07:53.817Z,99737.06
2022-08-16T19:10:24.300Z,99734.13
2022-08-16T19:12:51.616Z,99746.97
2022-08-16T19:15:23.417Z,99741.87
2022-08-16T19:17:51.210Z,99743.53
2022-08-16T19:20:21.440Z,99745.53
2022-08-16T19:23:10.564Z,99742.22
2022-08-16T19:25:49.044Z,99746.12
2022-08-16T19:28:51.602Z,99749.22
2022-08-16T19:31:31.513Z,99743.84
2022-08-16T19:33:59.345Z,99744.84
2022-08-16T19:36:35.259Z,99747.66
2022-08-16T19:39:09.665Z,99745.81
2022-08-16T19:41:45.982Z,99749.94
2022-08-16T19:44:13.794Z,99752.72
2022-08-16T19:46:46.841Z,99750.34
2022-08-16T19:49:15.893Z,99745.94
2022-08-16T19:51:48.411Z,99743.22
2022-08-16T19:54:15.791Z,99746.12
2022-08-16T19:56:43.097Z,99746.56
2022-08-16T19:59:19.804Z,99746.97
2022-08-16T20:01:54.097Z,99748.87
2022-08-16T20:04:23.039Z,99748.38
2022-08-16T20:06:52.515Z,99756.00
2022-08-16T20:09:21.314Z,99752.34
2022-08-16T20:11:49.842Z,99752.38
2022-08-16T20:14:24.324Z,99760.97
2022-08-16T20:16:54.987Z,99762.66
2022-08-16T20:19:22.402Z,99763.16
2022-08-16T20:21:50.286Z,99767.94
2022-08-16T20:24:35.675Z,99761.31
2022-08-16T20:27:06.518Z,99766.88
2022-08-16T20:29:34.487Z,99764.44
2022-08-16T20:32:02.271Z,99766.75
2022-08-16T20:34:29.508Z,99771.44
2022-08-16T20:36:56.691Z,99768.38
2022-08-16T20:39:24.384Z,99773.00
2022-08-16T20:41:51.990Z,99773.50
2022-08-16T20:44:22.867Z,99770.06
2022-08-16T20:46:52.213Z,99772.66
2022-08-16T20:49:19.212Z,99775.94
2022-08-16T20:51:49.568Z,99780.22
2022-08-16T20:54:18.530Z,99778.53
2022-08-16T20:56:45.381Z,99786.81
2022-08-16T20:59:12.319Z,99792.00
2022-08-16T21:01:45.577Z,99790.34
2022-08-16T21:04:16.737Z,99789.66
2022-08-16T21:06:53.170Z,99792.09
2022-08-16T21:09:23.369Z,99791.66
2022-08-16T21:11:53.067Z,99787.63
2022-08-16T21:14:20.037Z,99788.59
2022-08-16T21:16:46.814Z,99787.00
2022-08-16T21:19:13.719Z,99794.97
2022-08-16T21:21:40.646Z,99785.25
2022-08-16T21:24:07.939Z,99787.25
2022-08-16T21:26:38.977Z,99789.72
2022-08-16T21:29:07.723Z,99793.22
2022-08-16T21:31:40.453Z,99793.56
2022-08-16T21:34:08.399Z,99791.47
2022-08-16T21:36:36.542Z,99802.87
2022-08-16T21:39:06.210Z,99795.28
2022-08-16T21:41:33.201Z,99797.84
2022-08-16T21:43:59.987Z,99797.28
2022-08-16T21:46:27.029Z,99798.59
2022-08-16T21:48:53.813Z,99797.72
2022-08-16T21:51:20.746Z,99800.41
2022-08-16T21:53:47.822Z,99803.81
2022-08-16T21:56:16.579Z,99798.38
2022-08-16T21:58:44.147Z,99794.34
2022-08-16T22:01:11.324Z,99797.72
2022-08-16T22:03:38.362Z,99793.78
2022-08-16T22:06:12.928Z,99799.31
2022-08-16T22:08:50.500Z,99799.84
2022-08-16T22:11:24.327Z,99797.31
2022-08-16T22:13:58.156Z,99794.34
2022-08-16T22:16:32.297Z,99797.78
2022-08-16T22:19:00.011Z,99797.41
2022-08-16T22:21:27.469Z,99800.16
2022-08-16T22:23:57.870Z,99800.31
2022-08-16T22:26:30.142Z,99806.75
2022-08-16T22:29:39.522Z,99804.38
2022-08-16T22:32:09.602Z,99806.69
2022-08-16T22:34:36.512Z,99805.31
2022-08-16T22:37:03.501Z,99814.12
2022-08-16T22:39:30.404Z,99811.97
2022-08-16T22:41:57.288Z,99812.53
2022-08-16T22:44:24.720Z,99809.22
2022-08-16T22:46:51.397Z,99810.66
2022-08-16T22:49:18.086Z,99817.97
2022-08-16T22:51:45.020Z,99822.66
2022-08-16T22:54:43.986Z,99814.25
2022-08-16T22:56:59.001Z,99815.19
2022-08-16T22:59:25.775Z,99817.47
2022-08-16T23:01:53.691Z,99819.00
2022-08-16T23:04:20.740Z,99815.41
2022-08-16T23:06:47.787Z,99812.75
2022-08-16T23:09:14.705Z,99804.91
2022-08-16T23:11:41.434Z,99802.00
2022-08-16T23:14:08.504Z,99810.37
2022-08-16T23:16:35.472Z,99810.91
2022-08-16T23:19:05.506Z,99812.47
2022-08-16T23:21:32.765Z,99817.00
2022-08-16T23:23:59.679Z,99810.66
2022-08-16T23:26:43.755Z,99809.50
2022-08-16T23:29:22.246Z,99814.56
2022-08-16T23:31:59.029Z,99811.25
2022-08-16T23:34:28.315Z,99811.00
2022-08-16T23:36:55.522Z,99814.22
2022-08-16T23:39:22.666Z,99809.50
2022-08-16T23:41:49.500Z,99812.38
2022-08-16T23:44:56.519Z,99816.97
2022-08-16T23:47:03.059Z,99817.63
2022-08-16T23:49:57.666Z,99819.16
2022-08-16T23:52:18.701Z,99819.78
2022-08-16T23:55:05.981Z,99823.13
2022-08-16T23:57:33.273Z,99825.87
